createdAt,value
2017-06-16T00:00:15.797Z,1003.77
2017-06-16T00:00:56.352Z,1003.78
2017-06-16T00:01:37.768Z,1003.79
2017-06-16T00:02:18.280Z,1003.84
2017-06-16T00:02:58.802Z,1003.77
2017-06-16T00:03:39.297Z,1003.81
2017-06-16T00:04:19.835Z,1003.8
2017-06-16T00:05:00.576Z,1003.74
2017-06-16T00:05:41.076Z,1003.77
2017-06-16T00:06:21.587Z,1003.75
2017-06-16T00:07:02.141Z,1003.79
2017-06-16T00:07:42.636Z,1003.79
2017-06-16T00:08:23.111Z,1003.8
2017-06-16T00:09:03.711Z,1003.79
2017-06-16T00:09:44.210Z,1003.81
2017-06-16T00:10:24.745Z,1003.81
2017-06-16T00:11:05.257Z,1003.82
2017-06-16T00:11:45.775Z,1003.87
2017-06-16T00:12:26.245Z,1003.82
2017-06-16T00:13:06.760Z,1003.91
2017-06-16T00:13:47.290Z,1003.87
2017-06-16T00:14:27.749Z,1003.92
2017-06-16T00:15:08.301Z,1003.9
2017-06-16T00:15:48.780Z,1003.93
2017-06-16T00:16:29.251Z,1003.94
2017-06-16T00:17:09.779Z,1003.97
2017-06-16T00:17:50.335Z,1003.97
2017-06-16T00:18:30.843Z,1003.92
2017-06-16T00:19:11.339Z,1004
2017-06-16T00:19:51.893Z,1003.95
2017-06-16T00:20:32.421Z,1003.98
2017-06-16T00:21:12.907Z,1004
2017-06-16T00:21:53.527Z,1004.01
2017-06-16T00:22:33.999Z,1003.99
2017-06-16T00:23:14.501Z,1004.02
2017-06-16T00:23:55.048Z,1004
2017-06-16T00:24:35.510Z,1003.99
2017-06-16T00:25:16.038Z,1004
2017-06-16T00:25:56.538Z,1004.06
2017-06-16T00:26:37.081Z,1004.07
2017-06-16T00:27:17.532Z,1004.07
2017-06-16T00:27:58.057Z,1004
2017-06-16T00:28:38.534Z,1004.03
2017-06-16T00:29:19.060Z,1004
2017-06-16T00:29:59.514Z,1004.07
2017-06-16T00:30:40.009Z,1004.05
2017-06-16T00:31:20.525Z,1004.05
2017-06-16T00:32:01.071Z,1004.05
2017-06-16T00:32:41.508Z,1004.03
2017-06-16T00:33:21.995Z,1004.03
2017-06-16T00:34:02.505Z,1004.07
2017-06-16T00:34:43.000Z,1004.09
2017-06-16T00:35:23.501Z,1004.07
2017-06-16T00:36:04.000Z,1004.11
2017-06-16T00:36:44.549Z,1004.1
2017-06-16T00:37:25.052Z,1004.11
2017-06-16T00:38:05.558Z,1004.1
2017-06-16T00:38:46.035Z,1004.12
2017-06-16T00:39:26.526Z,1004.07
2017-06-16T00:40:07.069Z,1004.12
2017-06-16T00:40:47.538Z,1004.09
2017-06-16T00:41:28.067Z,1004.1
2017-06-16T00:42:08.610Z,1004.08
2017-06-16T00:42:49.117Z,1004.15
2017-06-16T00:43:29.629Z,1004.11
2017-06-16T00:44:10.140Z,1004.08
2017-06-16T00:44:50.627Z,1004.15
2017-06-16T00:45:31.126Z,1004.16
2017-06-16T00:46:11.681Z,1004.1
2017-06-16T00:46:52.159Z,1004.17
2017-06-16T00:47:32.689Z,1004.17
2017-06-16T00:48:13.175Z,1004.16
2017-06-16T00:48:53.736Z,1004.15
2017-06-16T00:49:34.291Z,1004.16
2017-06-16T00:50:14.808Z,1004.16
2017-06-16T00:50:55.298Z,1004.16
2017-06-16T00:51:35.782Z,1004.17
2017-06-16T00:52:16.275Z,1004.17
2017-06-16T00:52:56.783Z,1004.2
2017-06-16T00:53:37.323Z,1004.22
2017-06-16T00:54:17.774Z,1004.22
2017-06-16T00:54:58.287Z,1004.24
2017-06-16T00:55:38.818Z,1004.21
2017-06-16T00:56:19.347Z,1004.25
2017-06-16T00:56:59.827Z,1004.22
2017-06-16T00:57:40.322Z,1004.21
2017-06-16T00:58:20.850Z,1004.21
2017-06-16T00:59:01.357Z,1004.2
2017-06-16T00:59:41.863Z,1004.18
2017-06-16T01:00:22.370Z,1004.22
2017-06-16T01:01:03.013Z,1004.22
2017-06-16T01:01:43.447Z,1004.24
2017-06-16T01:02:23.991Z,1004.24
2017-06-16T01:03:04.512Z,1004.21
2017-06-16T01:03:45.013Z,1004.26
2017-06-16T01:04:25.534Z,1004.21
2017-06-16T01:05:06.046Z,1004.24
2017-06-16T01:05:46.555Z,1004.21
2017-06-16T01:06:27.163Z,1004.23
2017-06-16T01:07:07.645Z,1004.23
2017-06-16T01:07:48.150Z,1004.26
2017-06-16T01:08:28.687Z,1004.26
2017-06-16T01:09:09.174Z,1004.29
2017-06-16T01:09:49.680Z,1004.27
2017-06-16T01:10:30.160Z,1004.32
2017-06-16T01:11:10.661Z,1004.34
2017-06-16T01:11:51.204Z,1004.34
2017-06-16T01:12:31.703Z,1004.33
2017-06-16T01:13:12.209Z,1004.37
2017-06-16T01:13:52.797Z,1004.36
2017-06-16T01:14:33.351Z,1004.35
2017-06-16T01:15:13.834Z,1004.39
2017-06-16T01:15:54.335Z,1004.42
2017-06-16T01:16:34.827Z,1004.39
2017-06-16T01:17:15.344Z,1004.41
2017-06-16T01:17:55.864Z,1004.38
2017-06-16T01:18:36.383Z,1004.4
2017-06-16T01:19:16.943Z,1004.45
2017-06-16T01:19:57.384Z,1004.43
2017-06-16T01:20:37.909Z,1004.44
2017-06-16T01:21:18.400Z,1004.46
2017-06-16T01:21:58.915Z,1004.5
2017-06-16T01:22:39.442Z,1004.5
2017-06-16T01:23:19.989Z,1004.45
2017-06-16T01:24:00.492Z,1004.43
2017-06-16T01:24:40.986Z,1004.47
2017-06-16T01:25:21.467Z,1004.46
2017-06-16T01:26:01.996Z,1004.44
2017-06-16T01:26:42.465Z,1004.51
2017-06-16T01:27:23.006Z,1004.49
2017-06-16T01:28:03.470Z,1004.44
2017-06-16T01:28:43.981Z,1004.48
2017-06-16T01:29:24.527Z,1004.52
2017-06-16T01:30:04.978Z,1004.47
2017-06-16T01:30:45.477Z,1004.5
2017-06-16T01:31:25.969Z,1004.53
2017-06-16T01:32:06.463Z,1004.5
2017-06-16T01:32:46.944Z,1004.53
2017-06-16T01:33:27.405Z,1004.52
2017-06-16T01:34:07.909Z,1004.55
2017-06-16T01:34:48.517Z,1004.56
2017-06-16T01:35:28.935Z,1004.61
2017-06-16T01:36:09.462Z,1004.61
2017-06-16T01:36:50.907Z,1004.62
2017-06-16T01:37:31.363Z,1004.62
2017-06-16T01:38:11.912Z,1004.6
2017-06-16T01:38:52.430Z,1004.61
2017-06-16T01:39:32.955Z,1004.62
2017-06-16T01:40:13.440Z,1004.6
2017-06-16T01:40:53.966Z,1004.61
2017-06-16T01:41:34.432Z,1004.62
2017-06-16T01:42:14.932Z,1004.65
2017-06-16T01:42:55.453Z,1004.64
2017-06-16T01:43:35.923Z,1004.64
2017-06-16T01:44:16.407Z,1004.64
2017-06-16T01:44:56.966Z,1004.62
2017-06-16T01:45:37.438Z,1004.68
2017-06-16T01:46:17.973Z,1004.68
2017-06-16T01:46:58.456Z,1004.66
2017-06-16T01:47:38.987Z,1004.68
2017-06-16T01:48:19.492Z,1004.71
2017-06-16T01:48:59.963Z,1004.72
2017-06-16T01:49:40.501Z,1004.66
2017-06-16T01:50:20.987Z,1004.69
2017-06-16T01:51:01.509Z,1004.69
2017-06-16T01:51:41.959Z,1004.68
2017-06-16T01:52:22.510Z,1004.65
2017-06-16T01:53:03.008Z,1004.7
2017-06-16T01:53:43.516Z,1004.69
2017-06-16T01:54:23.994Z,1004.69
2017-06-16T01:55:04.466Z,1004.68
2017-06-16T01:55:44.991Z,1004.69
2017-06-16T01:56:25.495Z,1004.72
2017-06-16T01:57:05.986Z,1004.76
2017-06-16T01:57:46.509Z,1004.73
2017-06-16T01:58:26.996Z,1004.78
2017-06-16T01:59:07.512Z,1004.76
2017-06-16T01:59:47.987Z,1004.76
2017-06-16T02:00:28.480Z,1004.78
2017-06-16T02:01:08.995Z,1004.78
2017-06-16T02:01:49.538Z,1004.77
2017-06-16T02:02:30.016Z,1004.75
2017-06-16T02:03:10.585Z,1004.77
2017-06-16T02:03:51.091Z,1004.75
2017-06-16T02:04:31.596Z,1004.79
2017-06-16T02:05:12.116Z,1004.79
2017-06-16T02:05:52.608Z,1004.76
2017-06-16T02:06:33.094Z,1004.8
2017-06-16T02:07:13.587Z,1004.82
2017-06-16T02:07:54.079Z,1004.8
2017-06-16T02:08:34.570Z,1004.84
2017-06-16T02:09:15.091Z,1004.83
2017-06-16T02:09:55.600Z,1004.88
2017-06-16T02:10:36.081Z,1004.9
2017-06-16T02:11:16.591Z,1004.93
2017-06-16T02:11:57.090Z,1004.92
2017-06-16T02:12:37.592Z,1004.91
2017-06-16T02:13:18.133Z,1004.93
2017-06-16T02:13:58.672Z,1004.87
2017-06-16T02:14:39.150Z,1004.94
2017-06-16T02:15:19.613Z,1004.9
2017-06-16T02:16:00.145Z,1004.91
2017-06-16T02:16:40.623Z,1004.91
2017-06-16T02:17:21.150Z,1004.94
2017-06-16T02:18:01.664Z,1004.9
2017-06-16T02:18:42.375Z,1004.96
2017-06-16T02:19:22.883Z,1004.94
2017-06-16T02:20:03.380Z,1004.91
2017-06-16T02:20:43.874Z,1004.89
2017-06-16T02:21:24.408Z,1004.88
2017-06-16T02:22:04.883Z,1004.9
2017-06-16T02:22:45.408Z,1004.92
2017-06-16T02:23:25.958Z,1004.9
2017-06-16T02:24:06.411Z,1004.91
2017-06-16T02:24:46.904Z,1004.91
2017-06-16T02:25:27.450Z,1004.91
2017-06-16T02:26:07.967Z,1004.92
2017-06-16T02:26:48.433Z,1004.93
2017-06-16T02:27:28.955Z,1004.89
2017-06-16T02:28:09.466Z,1004.92
2017-06-16T02:28:49.956Z,1004.96
2017-06-16T02:29:30.435Z,1004.95
2017-06-16T02:30:10.967Z,1004.97
2017-06-16T02:30:51.487Z,1004.95
2017-06-16T02:31:31.990Z,1004.94
2017-06-16T02:32:12.546Z,1004.98
2017-06-16T02:32:53.028Z,1004.99
2017-06-16T02:33:33.517Z,1005.01
2017-06-16T02:34:14.032Z,1005.01
2017-06-16T02:34:54.504Z,1005.04
2017-06-16T02:35:34.991Z,1005
2017-06-16T02:36:15.508Z,1005
2017-06-16T02:36:55.986Z,1005
2017-06-16T02:37:36.489Z,1005.02
2017-06-16T02:38:17.005Z,1005
2017-06-16T02:38:57.514Z,1005.03
2017-06-16T02:39:38.036Z,1005.03
2017-06-16T02:40:18.481Z,1005.04
2017-06-16T02:40:59.026Z,1005.09
2017-06-16T02:41:39.511Z,1005.09
2017-06-16T02:42:20.008Z,1005.07
2017-06-16T02:43:00.511Z,1005.11
2017-06-16T02:43:40.982Z,1005.16
2017-06-16T02:44:21.483Z,1005.12
2017-06-16T02:45:02.060Z,1005.17
2017-06-16T02:45:42.496Z,1005.15
2017-06-16T02:46:22.998Z,1005.15
2017-06-16T02:47:03.505Z,1005.16
2017-06-16T02:47:43.998Z,1005.22
2017-06-16T02:48:24.496Z,1005.23
2017-06-16T02:49:04.979Z,1005.22
2017-06-16T02:49:45.536Z,1005.15
2017-06-16T02:50:26.019Z,1005.22
2017-06-16T02:51:06.534Z,1005.19
2017-06-16T02:51:47.054Z,1005.14
2017-06-16T02:52:27.597Z,1005.23
2017-06-16T02:53:08.080Z,1005.21
2017-06-16T02:53:48.603Z,1005.25
2017-06-16T02:54:29.117Z,1005.22
2017-06-16T02:55:09.627Z,1005.27
2017-06-16T02:55:50.105Z,1005.22
2017-06-16T02:56:30.618Z,1005.28
2017-06-16T02:57:11.147Z,1005.23
2017-06-16T02:57:51.608Z,1005.25
2017-06-16T02:58:32.067Z,1005.25
2017-06-16T02:59:12.627Z,1005.26
2017-06-16T02:59:53.096Z,1005.25
2017-06-16T03:00:33.612Z,1005.28
2017-06-16T03:01:14.123Z,1005.19
2017-06-16T03:01:54.599Z,1005.21
2017-06-16T03:02:35.118Z,1005.2
2017-06-16T03:03:15.600Z,1005.24
2017-06-16T03:03:56.096Z,1005.24
2017-06-16T03:04:36.573Z,1005.24
2017-06-16T03:05:17.159Z,1005.24
2017-06-16T03:05:57.637Z,1005.28
2017-06-16T03:06:38.118Z,1005.25
2017-06-16T03:07:18.633Z,1005.25
2017-06-16T03:07:59.113Z,1005.26
2017-06-16T03:08:39.625Z,1005.21
2017-06-16T03:09:20.389Z,1005.24
2017-06-16T03:10:00.849Z,1005.26
2017-06-16T03:10:41.365Z,1005.25
2017-06-16T03:11:21.852Z,1005.26
2017-06-16T03:12:02.389Z,1005.27
2017-06-16T03:12:42.843Z,1005.24
2017-06-16T03:13:23.391Z,1005.25
2017-06-16T03:14:03.868Z,1005.26
2017-06-16T03:14:44.319Z,1005.29
2017-06-16T03:15:24.819Z,1005.26
2017-06-16T03:16:05.321Z,1005.29
2017-06-16T03:16:45.817Z,1005.29
2017-06-16T03:17:26.347Z,1005.31
2017-06-16T03:18:06.852Z,1005.36
2017-06-16T03:18:47.388Z,1005.34
2017-06-16T03:19:27.846Z,1005.3
2017-06-16T03:20:08.401Z,1005.33
2017-06-16T03:20:48.877Z,1005.32
2017-06-16T03:21:29.343Z,1005.3
2017-06-16T03:22:09.914Z,1005.29
2017-06-16T03:22:50.327Z,1005.26
2017-06-16T03:23:30.869Z,1005.29
2017-06-16T03:24:11.318Z,1005.24
2017-06-16T03:24:51.841Z,1005.27
2017-06-16T03:25:32.331Z,1005.26
2017-06-16T03:26:12.834Z,1005.29
2017-06-16T03:26:53.352Z,1005.27
2017-06-16T03:27:33.888Z,1005.28
2017-06-16T03:28:14.369Z,1005.29
2017-06-16T03:28:54.843Z,1005.3
2017-06-16T03:29:35.364Z,1005.35
2017-06-16T03:30:15.864Z,1005.36
2017-06-16T03:30:56.355Z,1005.36
2017-06-16T03:31:36.899Z,1005.35
2017-06-16T03:32:17.421Z,1005.38
2017-06-16T03:32:57.890Z,1005.38
2017-06-16T03:33:38.412Z,1005.4
2017-06-16T03:34:18.945Z,1005.36
2017-06-16T03:34:59.429Z,1005.43
2017-06-16T03:35:39.899Z,1005.44
2017-06-16T03:36:20.425Z,1005.43
2017-06-16T03:37:00.964Z,1005.45
2017-06-16T03:37:41.444Z,1005.41
2017-06-16T03:38:21.900Z,1005.46
2017-06-16T03:39:02.438Z,1005.46
2017-06-16T03:39:42.917Z,1005.47
2017-06-16T03:40:23.418Z,1005.38
2017-06-16T03:41:03.918Z,1005.43
2017-06-16T03:41:44.407Z,1005.43
2017-06-16T03:42:24.900Z,1005.45
2017-06-16T03:43:05.349Z,1005.52
2017-06-16T03:43:45.888Z,1005.48
2017-06-16T03:44:26.354Z,1005.47
2017-06-16T03:45:06.899Z,1005.45
2017-06-16T03:45:47.385Z,1005.51
2017-06-16T03:46:27.881Z,1005.54
2017-06-16T03:47:08.371Z,1005.54
2017-06-16T03:47:48.863Z,1005.54
2017-06-16T03:48:29.398Z,1005.49
2017-06-16T03:49:09.870Z,1005.57
2017-06-16T03:49:50.405Z,1005.59
2017-06-16T03:50:30.907Z,1005.59
2017-06-16T03:51:11.371Z,1005.58
2017-06-16T03:51:51.896Z,1005.61
2017-06-16T03:52:32.382Z,1005.6
2017-06-16T03:53:12.887Z,1005.59
2017-06-16T03:53:53.378Z,1005.62
2017-06-16T03:54:33.959Z,1005.6
2017-06-16T03:55:14.390Z,1005.59
2017-06-16T03:55:54.888Z,1005.57
2017-06-16T03:56:35.381Z,1005.64
2017-06-16T03:57:15.896Z,1005.65
2017-06-16T03:57:56.470Z,1005.66
2017-06-16T03:58:36.937Z,1005.66
2017-06-16T03:59:17.444Z,1005.68
2017-06-16T03:59:57.930Z,1005.68
2017-06-16T04:00:38.439Z,1005.66
2017-06-16T04:01:18.924Z,1005.69
2017-06-16T04:01:59.496Z,1005.67
2017-06-16T04:02:40.305Z,1005.7
2017-06-16T04:03:20.803Z,1005.73
2017-06-16T04:04:01.322Z,1005.7
2017-06-16T04:04:41.849Z,1005.7
2017-06-16T04:05:22.341Z,1005.73
2017-06-16T04:06:02.844Z,1005.72
2017-06-16T04:06:43.332Z,1005.71
2017-06-16T04:07:23.835Z,1005.7
2017-06-16T04:08:04.395Z,1005.77
2017-06-16T04:08:44.937Z,1005.73
2017-06-16T04:09:25.389Z,1005.69
2017-06-16T04:10:05.883Z,1005.68
2017-06-16T04:10:46.404Z,1005.64
2017-06-16T04:11:26.913Z,1005.59
2017-06-16T04:12:07.412Z,1005.66
2017-06-16T04:12:47.956Z,1005.65
2017-06-16T04:13:28.448Z,1005.62
2017-06-16T04:14:08.983Z,1005.61
2017-06-16T04:14:49.493Z,1005.58
2017-06-16T04:15:29.994Z,1005.63
2017-06-16T04:16:10.494Z,1005.58
2017-06-16T04:16:50.983Z,1005.6
2017-06-16T04:17:31.513Z,1005.61
2017-06-16T04:18:12.059Z,1005.62
2017-06-16T04:18:52.538Z,1005.6
2017-06-16T04:19:33.024Z,1005.6
2017-06-16T04:20:13.538Z,1005.6
2017-06-16T04:20:54.032Z,1005.62
2017-06-16T04:21:34.509Z,1005.66
2017-06-16T04:22:15.022Z,1005.62
2017-06-16T04:22:55.486Z,1005.65
2017-06-16T04:23:36.023Z,1005.63
2017-06-16T04:24:16.474Z,1005.63
2017-06-16T04:24:57.021Z,1005.59
2017-06-16T04:25:37.548Z,1005.56
2017-06-16T04:26:18.050Z,1005.63
2017-06-16T04:26:58.563Z,1005.6
2017-06-16T04:27:39.035Z,1005.64
2017-06-16T04:28:19.523Z,1005.62
2017-06-16T04:29:00.025Z,1005.63
2017-06-16T04:29:40.529Z,1005.65
2017-06-16T04:30:21.076Z,1005.61
2017-06-16T04:31:01.533Z,1005.67
2017-06-16T04:31:42.010Z,1005.65
2017-06-16T04:32:22.492Z,1005.65
2017-06-16T04:33:03.020Z,1005.65
2017-06-16T04:33:43.532Z,1005.64
2017-06-16T04:34:24.019Z,1005.67
2017-06-16T04:35:04.550Z,1005.61
2017-06-16T04:35:45.043Z,1005.64
2017-06-16T04:36:25.527Z,1005.64
2017-06-16T04:37:05.997Z,1005.72
2017-06-16T04:37:46.524Z,1005.71
2017-06-16T04:38:27.020Z,1005.64
2017-06-16T04:39:07.461Z,1005.72
2017-06-16T04:39:47.944Z,1005.71
2017-06-16T04:40:28.465Z,1005.73
2017-06-16T04:41:08.957Z,1005.76
2017-06-16T04:41:49.479Z,1005.78
2017-06-16T04:42:29.948Z,1005.84
2017-06-16T04:43:10.447Z,1005.88
2017-06-16T04:43:50.958Z,1005.91
2017-06-16T04:44:31.471Z,1005.97
2017-06-16T04:45:11.998Z,1006.02
2017-06-16T04:45:52.439Z,1006
2017-06-16T04:46:32.938Z,1006.06
2017-06-16T04:47:13.458Z,1006.04
2017-06-16T04:47:53.960Z,1006.07
2017-06-16T04:48:34.436Z,1006.09
2017-06-16T04:49:14.909Z,1006.1
2017-06-16T04:49:55.439Z,1006.05
2017-06-16T04:50:35.918Z,1006.04
2017-06-16T04:51:16.451Z,1006.04
2017-06-16T04:51:56.986Z,1006.03
2017-06-16T04:52:37.468Z,1005.98
2017-06-16T04:53:18.022Z,1006.02
2017-06-16T04:53:58.464Z,1006.08
2017-06-16T04:54:39.030Z,1006.16
2017-06-16T04:55:19.563Z,1006.18
2017-06-16T04:56:00.027Z,1006.17
2017-06-16T04:56:40.545Z,1006.17
2017-06-16T04:57:21.045Z,1006.21
2017-06-16T04:58:01.522Z,1006.19
2017-06-16T04:58:42.022Z,1006.18
2017-06-16T04:59:22.613Z,1006.23
2017-06-16T05:00:03.109Z,1006.22
2017-06-16T05:00:43.771Z,1006.26
2017-06-16T05:01:24.267Z,1006.22
2017-06-16T05:02:04.756Z,1006.3
2017-06-16T05:02:45.302Z,1006.26
2017-06-16T05:03:25.788Z,1006.3
2017-06-16T05:04:06.328Z,1006.32
2017-06-16T05:04:46.895Z,1006.33
2017-06-16T05:05:27.566Z,1006.34
2017-06-16T05:06:08.038Z,1006.36
2017-06-16T05:06:48.543Z,1006.45
2017-06-16T05:07:29.067Z,1006.48
2017-06-16T05:08:09.571Z,1006.5
2017-06-16T05:08:50.229Z,1006.54
2017-06-16T05:09:30.676Z,1006.53
2017-06-16T05:10:11.209Z,1006.49
2017-06-16T05:10:51.745Z,1006.53
2017-06-16T05:11:32.262Z,1006.51
2017-06-16T05:12:12.742Z,1006.53
2017-06-16T05:12:53.200Z,1006.51
2017-06-16T05:13:33.721Z,1006.51
2017-06-16T05:14:14.217Z,1006.44
2017-06-16T05:14:54.741Z,1006.48
2017-06-16T05:15:35.265Z,1006.54
2017-06-16T05:16:15.788Z,1006.53
2017-06-16T05:16:56.287Z,1006.5
2017-06-16T05:17:36.795Z,1006.49
2017-06-16T05:18:17.288Z,1006.51
2017-06-16T05:18:57.782Z,1006.52
2017-06-16T05:19:38.309Z,1006.57
2017-06-16T05:20:19.414Z,1006.57
2017-06-16T05:20:59.896Z,1006.64
2017-06-16T05:21:40.467Z,1006.64
2017-06-16T05:22:20.961Z,1006.69
2017-06-16T05:23:01.450Z,1006.73
2017-06-16T05:23:42.577Z,1006.76
2017-06-16T05:24:23.001Z,1006.77
2017-06-16T05:25:03.674Z,1006.82
2017-06-16T05:25:44.231Z,1006.86
2017-06-16T05:26:24.769Z,1006.82
2017-06-16T05:27:05.206Z,1006.89
2017-06-16T05:27:45.720Z,1006.79
2017-06-16T05:28:26.207Z,1006.81
2017-06-16T05:29:06.682Z,1006.76
2017-06-16T05:29:47.206Z,1006.72
2017-06-16T05:30:27.856Z,1006.75
2017-06-16T05:31:08.234Z,1006.79
2017-06-16T05:31:48.700Z,1006.76
2017-06-16T05:32:29.210Z,1006.77
2017-06-16T05:33:09.767Z,1006.79
2017-06-16T05:33:50.321Z,1006.81
2017-06-16T05:34:30.790Z,1006.8
2017-06-16T05:35:11.318Z,1006.79
2017-06-16T05:35:51.860Z,1006.77
2017-06-16T05:36:32.342Z,1006.74
2017-06-16T05:37:12.827Z,1006.82
2017-06-16T05:37:53.276Z,1006.81
2017-06-16T05:38:33.778Z,1006.77
2017-06-16T05:39:14.319Z,1006.82
2017-06-16T05:39:54.789Z,1006.82
2017-06-16T05:40:35.321Z,1006.85
2017-06-16T05:41:15.836Z,1006.84
2017-06-16T05:41:56.294Z,1006.89
2017-06-16T05:42:36.842Z,1006.89
2017-06-16T05:43:17.269Z,1006.89
2017-06-16T05:43:58.101Z,1006.84
2017-06-16T05:44:39.138Z,1006.86
2017-06-16T05:45:19.696Z,1006.86
2017-06-16T05:46:00.183Z,1006.85
2017-06-16T05:48:13.640Z,1006.86
2017-06-16T05:48:54.166Z,1006.86
2017-06-16T05:49:34.688Z,1006.83
2017-06-16T05:50:15.191Z,1006.81
2017-06-16T05:50:55.711Z,1006.83
2017-06-16T05:51:36.261Z,1006.91
2017-06-16T05:52:16.792Z,1006.95
2017-06-16T05:52:57.324Z,1006.94
2017-06-16T05:53:37.861Z,1006.9
2017-06-16T05:54:18.566Z,1006.95
2017-06-16T05:56:11.676Z,1006.96
2017-06-16T05:56:52.192Z,1006.99
2017-06-16T05:57:32.721Z,1006.98
2017-06-16T05:58:13.247Z,1006.96
2017-06-16T05:58:53.784Z,1007
2017-06-16T05:59:34.312Z,1007.01
2017-06-16T06:00:14.868Z,1007.04
2017-06-16T06:00:55.686Z,1007.02
2017-06-16T06:01:36.243Z,1007.01
2017-06-16T06:02:16.799Z,1006.99
2017-06-16T06:02:57.346Z,1007.02
2017-06-16T06:03:37.888Z,1006.98
2017-06-16T06:04:18.412Z,1007.02
2017-06-16T06:04:59.161Z,1007.03
2017-06-16T06:05:39.667Z,1007.02
2017-06-16T06:06:20.135Z,1007.04
2017-06-16T06:07:00.662Z,1006.99
2017-06-16T06:07:41.291Z,1007.12
2017-06-16T06:08:21.726Z,1007.09
2017-06-16T06:09:02.231Z,1007.15
2017-06-16T06:09:42.720Z,1007.14
2017-06-16T06:10:23.287Z,1007.14
2017-06-16T06:11:03.745Z,1007.18
2017-06-16T06:11:44.232Z,1007.14
2017-06-16T06:12:24.738Z,1007.11
2017-06-16T06:13:05.263Z,1007.11
2017-06-16T06:13:45.791Z,1007.12
2017-06-16T06:14:26.366Z,1007.14
2017-06-16T06:15:06.839Z,1007.11
2017-06-16T06:15:47.361Z,1007.07
2017-06-16T06:16:27.857Z,1007.05
2017-06-16T06:17:08.406Z,1007.08
2017-06-16T06:17:48.941Z,1007.01
2017-06-16T06:18:29.669Z,1007.03
2017-06-16T06:19:10.052Z,1007.01
2017-06-16T06:19:50.519Z,1007.04
2017-06-16T06:20:31.066Z,1006.98
2017-06-16T06:21:11.619Z,1006.98
2017-06-16T06:21:52.140Z,1007.01
2017-06-16T06:22:32.659Z,1007.09
2017-06-16T06:23:13.178Z,1007.07
2017-06-16T06:23:53.741Z,1007.04
2017-06-16T06:24:34.271Z,1007.09
2017-06-16T06:25:14.800Z,1007.06
2017-06-16T06:25:55.332Z,1007.13
2017-06-16T06:26:35.857Z,1007.15
2017-06-16T06:27:16.361Z,1007.14
2017-06-16T06:27:56.891Z,1007.09
2017-06-16T06:28:37.428Z,1007.12
2017-06-16T06:29:18.002Z,1007.07
2017-06-16T06:29:58.476Z,1007.09
2017-06-16T06:30:39.027Z,1007.06
2017-06-16T06:31:19.644Z,1007.03
2017-06-16T06:32:00.197Z,1007.09
2017-06-16T06:32:40.709Z,1007.14
2017-06-16T06:33:21.215Z,1007.16
2017-06-16T06:34:01.747Z,1007.18
2017-06-16T06:34:42.254Z,1007.19
2017-06-16T06:35:22.717Z,1007.18
2017-06-16T06:36:03.258Z,1007.19
2017-06-16T06:36:43.769Z,1007.24
2017-06-16T06:37:24.240Z,1007.22
2017-06-16T06:38:04.761Z,1007.23
2017-06-16T06:38:45.257Z,1007.21
2017-06-16T06:39:25.787Z,1007.25
2017-06-16T06:40:06.290Z,1007.23
2017-06-16T06:40:46.818Z,1007.21
2017-06-16T06:41:27.315Z,1007.26
2017-06-16T06:42:07.829Z,1007.2
2017-06-16T06:42:48.317Z,1007.21
2017-06-16T06:43:28.864Z,1007.25
2017-06-16T06:44:09.448Z,1007.28
2017-06-16T06:44:49.945Z,1007.28
2017-06-16T06:45:30.430Z,1007.3
2017-06-16T06:46:10.901Z,1007.32
2017-06-16T06:46:51.390Z,1007.32
2017-06-16T06:47:31.889Z,1007.28
2017-06-16T06:48:12.405Z,1007.35
2017-06-16T06:48:52.925Z,1007.32
2017-06-16T06:49:33.429Z,1007.39
2017-06-16T06:50:13.910Z,1007.41
2017-06-16T06:50:54.374Z,1007.36
2017-06-16T06:51:34.881Z,1007.47
2017-06-16T06:52:15.456Z,1007.42
2017-06-16T06:52:55.889Z,1007.39
2017-06-16T06:53:36.403Z,1007.46
2017-06-16T06:54:16.880Z,1007.41
2017-06-16T06:54:57.458Z,1007.45
2017-06-16T06:55:37.942Z,1007.43
2017-06-16T06:56:18.447Z,1007.45
2017-06-16T06:56:58.938Z,1007.42
2017-06-16T06:57:39.454Z,1007.38
2017-06-16T06:58:19.961Z,1007.41
2017-06-16T06:59:00.488Z,1007.36
2017-06-16T06:59:41.041Z,1007.45
2017-06-16T07:00:21.514Z,1007.46
2017-06-16T07:01:02.003Z,1007.54
2017-06-16T07:03:00.148Z,1007.44
2017-06-16T07:03:40.665Z,1007.48
2017-06-16T07:04:21.193Z,1007.42
2017-06-16T07:05:01.693Z,1007.49
2017-06-16T07:07:15.030Z,1007.45
2017-06-16T07:07:55.553Z,1007.46
2017-06-16T07:08:36.065Z,1007.41
2017-06-16T07:09:16.599Z,1007.4
2017-06-16T07:09:57.131Z,1007.41
2017-06-16T07:10:37.649Z,1007.43
2017-06-16T07:11:18.162Z,1007.48
2017-06-16T07:11:58.679Z,1007.47
2017-06-16T07:12:39.256Z,1007.39
2017-06-16T07:13:19.763Z,1007.45
2017-06-16T07:14:00.281Z,1007.44
2017-06-16T07:14:40.824Z,1007.45
2017-06-16T07:15:21.349Z,1007.46
2017-06-16T07:16:01.872Z,1007.5
2017-06-16T07:16:42.374Z,1007.45
2017-06-16T07:17:22.876Z,1007.48
2017-06-16T07:18:03.422Z,1007.51
2017-06-16T07:18:43.951Z,1007.49
2017-06-16T07:19:24.472Z,1007.55
2017-06-16T07:20:04.993Z,1007.54
2017-06-16T07:20:45.524Z,1007.52
2017-06-16T07:21:26.054Z,1007.55
2017-06-16T07:22:06.611Z,1007.58
2017-06-16T07:22:47.114Z,1007.56
2017-06-16T07:23:27.656Z,1007.52
2017-06-16T07:24:08.118Z,1007.57
2017-06-16T07:24:48.677Z,1007.53
2017-06-16T07:25:29.115Z,1007.57
2017-06-16T07:26:09.616Z,1007.55
2017-06-16T07:26:50.122Z,1007.6
2017-06-16T07:27:30.609Z,1007.59
2017-06-16T07:28:11.117Z,1007.58
2017-06-16T07:28:51.646Z,1007.57
2017-06-16T07:29:32.163Z,1007.63
2017-06-16T07:30:12.720Z,1007.62
2017-06-16T07:30:53.247Z,1007.62
2017-06-16T07:31:33.773Z,1007.58
2017-06-16T07:32:14.302Z,1007.66
2017-06-16T07:32:54.832Z,1007.64
2017-06-16T07:33:35.376Z,1007.69
2017-06-16T07:34:15.907Z,1007.66
2017-06-16T07:34:56.423Z,1007.72
2017-06-16T07:35:36.986Z,1007.7
2017-06-16T07:36:17.501Z,1007.68
2017-06-16T07:36:58.024Z,1007.71
2017-06-16T07:37:38.546Z,1007.7
2017-06-16T07:38:19.075Z,1007.68
2017-06-16T07:38:59.612Z,1007.66
2017-06-16T07:39:40.132Z,1007.67
2017-06-16T07:40:20.670Z,1007.73
2017-06-16T07:41:01.225Z,1007.69
2017-06-16T07:41:41.751Z,1007.74
2017-06-16T07:42:22.261Z,1007.69
2017-06-16T07:43:02.837Z,1007.73
2017-06-16T07:43:43.352Z,1007.76
2017-06-16T07:44:23.923Z,1007.75
2017-06-16T07:45:04.429Z,1007.77
2017-06-16T07:45:44.957Z,1007.79
2017-06-16T07:46:25.488Z,1007.76
2017-06-16T07:47:06.009Z,1007.79
2017-06-16T07:47:46.520Z,1007.77
2017-06-16T07:48:27.047Z,1007.8
2017-06-16T07:49:07.597Z,1007.78
2017-06-16T07:49:48.118Z,1007.81
2017-06-16T07:50:28.637Z,1007.89
2017-06-16T07:52:21.759Z,1007.82
2017-06-16T07:53:02.293Z,1007.78
2017-06-16T07:53:42.821Z,1007.8
2017-06-16T07:54:23.375Z,1007.76
2017-06-16T07:55:03.968Z,1007.75
2017-06-16T07:55:44.507Z,1007.73
2017-06-16T07:56:25.017Z,1007.71
2017-06-16T07:57:05.543Z,1007.71
2017-06-16T07:57:46.089Z,1007.67
2017-06-16T07:58:26.619Z,1007.69
2017-06-16T07:59:07.155Z,1007.71
2017-06-16T07:59:47.678Z,1007.62
2017-06-16T08:00:28.197Z,1007.65
2017-06-16T08:01:08.721Z,1007.64
2017-06-16T08:01:49.252Z,1007.74
2017-06-16T08:02:29.893Z,1007.75
2017-06-16T08:03:10.405Z,1007.72
2017-06-16T08:03:50.895Z,1007.7
2017-06-16T08:04:31.429Z,1007.77
2017-06-16T08:05:11.937Z,1007.7
2017-06-16T08:05:52.452Z,1007.71
2017-06-16T08:06:32.990Z,1007.78
2017-06-16T08:07:13.507Z,1007.74
2017-06-16T08:07:54.143Z,1007.76
2017-06-16T08:09:48.240Z,1007.78
2017-06-16T08:10:28.765Z,1007.8
2017-06-16T08:11:09.291Z,1007.77
2017-06-16T08:11:49.850Z,1007.68
2017-06-16T08:12:30.504Z,1007.8
2017-06-16T08:13:11.018Z,1007.8
2017-06-16T08:13:51.552Z,1007.74
2017-06-16T08:14:32.068Z,1007.74
2017-06-16T08:15:12.569Z,1007.72
2017-06-16T08:15:53.092Z,1007.71
2017-06-16T08:16:33.709Z,1007.71
2017-06-16T08:17:14.196Z,1007.68
2017-06-16T08:17:54.730Z,1007.73
2017-06-16T08:18:35.218Z,1007.73
2017-06-16T08:19:15.738Z,1007.72
2017-06-16T08:19:56.238Z,1007.79